createdAt,value
2018-07-06T00:00:21.446Z,51.80
2018-07-06T00:02:23.412Z,51.80
2018-07-06T00:04:25.384Z,51.80
2018-07-06T00:06:27.722Z,51.70
2018-07-06T00:08:29.693Z,51.90
2018-07-06T00:10:31.660Z,51.70
2018-07-06T00:12:33.618Z,51.70
2018-07-06T00:14:35.580Z,51.70
2018-07-06T00:16:37.558Z,51.70
2018-07-06T00:18:39.527Z,52.20
2018-07-06T00:20:41.532Z,51.70
2018-07-06T00:22:43.510Z,51.70
2018-07-06T00:24:45.474Z,51.70
2018-07-06T00:26:47.456Z,51.70
2018-07-06T00:28:49.417Z,51.60
2018-07-06T00:30:51.376Z,51.60
2018-07-06T00:32:53.339Z,51.70
2018-07-06T00:34:55.333Z,51.70
2018-07-06T00:36:57.246Z,51.70
2018-07-06T00:38:59.214Z,51.80
2018-07-06T00:41:01.186Z,51.70
2018-07-06T00:43:03.139Z,51.70
2018-07-06T00:45:05.085Z,51.60
2018-07-06T00:47:07.043Z,51.70
2018-07-06T00:49:09.013Z,51.60
2018-07-06T00:51:10.972Z,51.70
2018-07-06T00:53:13.167Z,51.70
2018-07-06T00:55:15.125Z,51.70
2018-07-06T00:57:17.092Z,51.70
2018-07-06T00:59:19.069Z,52.00
2018-07-06T01:01:21.014Z,51.80
2018-07-06T01:03:23.020Z,51.70
2018-07-06T01:05:24.967Z,51.70
2018-07-06T01:07:26.922Z,51.80
2018-07-06T01:09:28.918Z,52.00
2018-07-06T01:11:30.865Z,52.00
2018-07-06T01:15:35.059Z,52.10
2018-07-06T01:17:37.014Z,52.20
2018-07-06T01:19:38.980Z,52.30
2018-07-06T01:21:40.947Z,52.30
2018-07-06T01:23:42.932Z,52.20
2018-07-06T01:25:44.890Z,52.10
2018-07-06T01:27:46.853Z,51.90
2018-07-06T01:29:48.843Z,51.90
2018-07-06T01:31:50.798Z,52.10
2018-07-06T01:33:52.761Z,52.10
2018-07-06T01:35:54.741Z,52.10
2018-07-06T01:37:56.705Z,52.20
2018-07-06T01:39:58.667Z,52.10
2018-07-06T01:42:00.641Z,52.20
2018-07-06T01:44:02.621Z,52.30
2018-07-06T01:46:04.583Z,52.20
2018-07-06T01:48:06.537Z,52.20
2018-07-06T01:50:08.506Z,52.20
2018-07-06T01:54:12.707Z,52.30
2018-07-06T01:56:14.712Z,52.40
2018-07-06T01:58:16.654Z,52.20
2018-07-06T02:00:18.611Z,52.30
2018-07-06T02:02:20.588Z,52.30
2018-07-06T02:04:22.547Z,52.30
2018-07-06T02:06:24.520Z,52.30
2018-07-06T02:08:26.466Z,52.40
2018-07-06T02:10:28.425Z,52.30
2018-07-06T02:12:30.417Z,52.30
2018-07-06T02:14:32.386Z,52.20
2018-07-06T02:16:34.329Z,52.30
2018-07-06T02:18:36.304Z,52.20
2018-07-06T02:20:38.263Z,52.10
2018-07-06T02:22:40.248Z,52.10
2018-07-06T02:24:42.197Z,52.30
2018-07-06T02:26:44.160Z,52.10
2018-07-06T02:28:46.117Z,52.20
2018-07-06T02:30:48.095Z,52.30
2018-07-06T02:32:50.039Z,52.30
2018-07-06T02:34:52.002Z,52.30
2018-07-06T02:36:53.963Z,52.30
2018-07-06T02:38:55.921Z,52.20
2018-07-06T02:40:57.894Z,52.30
2018-07-06T02:42:59.839Z,52.20
2018-07-06T02:45:01.800Z,52.10
2018-07-06T02:47:03.773Z,52.10
2018-07-06T02:49:05.737Z,52.10
2018-07-06T02:51:07.708Z,52.10
2018-07-06T02:53:09.729Z,52.50
2018-07-06T02:55:11.771Z,52.00
2018-07-06T02:57:13.677Z,52.00
2018-07-06T02:59:15.625Z,52.10
2018-07-06T03:01:17.593Z,52.30
2018-07-06T03:03:19.559Z,51.90
2018-07-06T03:05:21.532Z,51.90
2018-07-06T03:07:23.491Z,51.80
2018-07-06T03:09:25.479Z,51.80
2018-07-06T03:11:27.424Z,51.90
2018-07-06T03:13:29.388Z,51.90
2018-07-06T03:15:31.368Z,51.90
2018-07-06T03:17:33.320Z,51.80
2018-07-06T03:19:35.293Z,51.80
2018-07-06T03:21:37.242Z,51.80
2018-07-06T03:23:39.205Z,51.80
2018-07-06T03:25:41.176Z,51.90
2018-07-06T03:27:43.224Z,51.80
2018-07-06T03:29:45.208Z,51.70
2018-07-06T03:31:47.177Z,51.70
2018-07-06T03:33:49.154Z,51.70
2018-07-06T03:35:51.096Z,51.90
2018-07-06T03:37:53.066Z,51.70
2018-07-06T03:39:55.025Z,51.70
2018-07-06T03:41:56.968Z,51.70
2018-07-06T03:43:58.936Z,51.70
2018-07-06T03:46:00.892Z,51.80
2018-07-06T03:48:02.927Z,51.60
2018-07-06T03:50:05.210Z,51.70
2018-07-06T03:52:07.162Z,51.60
2018-07-06T03:54:09.115Z,51.80
2018-07-06T03:56:11.070Z,51.70
2018-07-06T03:58:13.022Z,51.80
2018-07-06T04:00:14.990Z,51.80
2018-07-06T04:04:19.205Z,51.90
2018-07-06T04:06:21.165Z,51.80
2018-07-06T04:08:23.128Z,51.80
2018-07-06T04:10:25.108Z,51.90
2018-07-06T04:12:27.052Z,51.80
2018-07-06T04:14:29.010Z,51.80
2018-07-06T04:16:30.980Z,51.80
2018-07-06T04:18:32.947Z,51.80
2018-07-06T04:20:34.916Z,51.90
2018-07-06T04:22:36.886Z,51.90
2018-07-06T04:24:38.835Z,51.90
2018-07-06T04:26:40.808Z,52.70
2018-07-06T04:28:42.775Z,52.00
2018-07-06T04:30:44.736Z,52.00
2018-07-06T04:32:46.696Z,52.00
2018-07-06T04:34:48.644Z,52.10
2018-07-06T04:36:50.624Z,52.20
2018-07-06T04:38:52.586Z,52.20
2018-07-06T04:40:54.546Z,52.30
2018-07-06T04:42:56.509Z,52.20
2018-07-06T04:44:58.471Z,52.20
2018-07-06T04:47:00.422Z,52.50
2018-07-06T04:49:02.388Z,52.60
2018-07-06T04:51:04.417Z,52.60
2018-07-06T04:53:06.308Z,52.60
2018-07-06T04:57:10.476Z,52.70
2018-07-06T04:59:12.464Z,52.70
2018-07-06T05:01:14.425Z,52.80
2018-07-06T05:03:16.409Z,52.80
2018-07-06T05:05:18.366Z,52.90
2018-07-06T05:07:20.329Z,53.00
2018-07-06T05:09:22.314Z,53.10
2018-07-06T05:11:24.264Z,53.20
2018-07-06T05:13:26.225Z,53.20
2018-07-06T05:15:28.223Z,53.10
2018-07-06T05:17:30.180Z,53.10
2018-07-06T05:19:32.172Z,53.10
2018-07-06T05:21:34.142Z,53.20
2018-07-06T05:23:36.086Z,53.10
2018-07-06T05:25:38.056Z,53.30
2018-07-06T05:27:40.016Z,53.40
2018-07-06T05:29:41.990Z,53.40
2018-07-06T05:31:43.944Z,53.40
2018-07-06T05:33:45.920Z,53.40
2018-07-06T05:35:47.881Z,53.50
2018-07-06T05:37:49.878Z,53.50
2018-07-06T05:39:51.790Z,53.70
2018-07-06T05:41:53.774Z,53.70
2018-07-06T05:43:55.734Z,53.70
2018-07-06T05:45:57.706Z,53.70
2018-07-06T05:50:01.896Z,53.70
2018-07-06T05:52:03.856Z,53.70
2018-07-06T05:54:05.810Z,53.80
2018-07-06T05:56:07.768Z,53.80
2018-07-06T05:58:09.731Z,53.70
2018-07-06T06:00:11.713Z,53.80
2018-07-06T06:02:13.662Z,53.80
2018-07-06T06:04:15.628Z,53.80
2018-07-06T06:06:17.590Z,53.80
2018-07-06T06:08:19.558Z,53.80
2018-07-06T06:10:21.510Z,53.80
2018-07-06T06:12:23.508Z,53.80
2018-07-06T06:14:25.464Z,53.80
2018-07-06T06:16:27.400Z,53.80
2018-07-06T06:18:29.439Z,54.00
2018-07-06T06:20:31.325Z,53.90
2018-07-06T06:22:33.306Z,54.10
2018-07-06T06:24:35.296Z,54.80
2018-07-06T06:26:37.246Z,54.10
2018-07-06T06:28:39.203Z,54.00
2018-07-06T06:30:41.152Z,54.10
2018-07-06T06:32:43.132Z,53.90
2018-07-06T06:34:45.124Z,54.10
2018-07-06T06:36:47.139Z,54.10
2018-07-06T06:38:49.116Z,54.20
2018-07-06T06:40:51.077Z,54.20
2018-07-06T06:42:53.048Z,54.30
2018-07-06T06:44:55.028Z,54.30
2018-07-06T06:46:56.982Z,54.30
2018-07-06T06:48:58.959Z,54.40
2018-07-06T06:51:00.959Z,54.40
2018-07-06T06:53:02.944Z,54.40
2018-07-06T06:55:04.875Z,54.40
2018-07-06T06:59:09.075Z,54.40
2018-07-06T07:01:11.276Z,54.60
2018-07-06T07:03:13.301Z,57.10
2018-07-06T07:05:15.283Z,60.60
2018-07-06T07:07:17.289Z,62.80
2018-07-06T07:09:19.227Z,64.30
2018-07-06T07:11:21.206Z,65.00
2018-07-06T07:13:23.177Z,64.60
2018-07-06T07:15:25.151Z,64.50
2018-07-06T07:17:27.120Z,64.60
2018-07-06T07:19:29.103Z,65.60
2018-07-06T07:21:31.063Z,65.40
2018-07-06T07:23:33.089Z,65.80
2018-07-06T07:25:35.045Z,64.90
2018-07-06T07:27:37.016Z,63.80
2018-07-06T07:29:38.977Z,65.00
2018-07-06T07:31:40.945Z,65.40
2018-07-06T07:33:42.917Z,65.10
2018-07-06T07:35:44.906Z,65.40
2018-07-06T07:37:46.869Z,64.90
2018-07-06T07:39:48.834Z,64.50
2018-07-06T07:41:50.815Z,64.30
2018-07-06T07:43:52.793Z,64.50
2018-07-06T07:45:54.788Z,64.90
2018-07-06T07:47:56.758Z,64.90
2018-07-06T07:49:58.722Z,65.20
2018-07-06T07:52:00.698Z,64.60
2018-07-06T07:54:02.668Z,64.90
2018-07-06T07:56:04.740Z,64.40
2018-07-06T07:58:06.715Z,65.10
2018-07-06T08:00:08.673Z,64.80
2018-07-06T08:02:10.651Z,63.80
2018-07-06T08:04:12.624Z,64.00
2018-07-06T08:06:14.623Z,65.10
2018-07-06T08:08:16.581Z,65.40
2018-07-06T08:10:18.545Z,65.70
2018-07-06T08:12:20.517Z,66.10
2018-07-06T08:14:22.522Z,64.70
2018-07-06T08:16:24.477Z,64.30
2018-07-06T08:18:26.488Z,64.80
2018-07-06T08:20:28.433Z,65.30
2018-07-06T08:22:30.397Z,65.80
2018-07-06T08:24:32.363Z,65.90
2018-07-06T08:26:34.332Z,66.80
2018-07-06T08:28:36.314Z,67.00
2018-07-06T08:30:38.252Z,66.90
2018-07-06T08:32:40.243Z,65.90
2018-07-06T08:34:42.215Z,66.10
2018-07-06T08:36:44.203Z,66.40
2018-07-06T08:38:46.195Z,66.50
2018-07-06T08:40:48.141Z,66.90
2018-07-06T08:42:50.109Z,67.90
2018-07-06T08:44:52.139Z,67.20
2018-07-06T08:46:54.045Z,66.80
2018-07-06T08:48:56.009Z,66.50
2018-07-06T08:50:57.962Z,66.90
2018-07-06T08:52:59.910Z,66.80
2018-07-06T08:55:01.891Z,64.20
2018-07-06T08:57:03.843Z,58.60
2018-07-06T09:01:08.057Z,61.80
2018-07-06T09:03:10.031Z,65.00
2018-07-06T09:05:12.000Z,67.00
2018-07-06T09:07:14.199Z,67.00
2018-07-06T09:09:16.246Z,67.40
2018-07-06T09:11:18.217Z,68.40
2018-07-06T09:13:20.166Z,68.50
2018-07-06T09:15:22.140Z,68.90
2018-07-06T09:17:24.104Z,68.20
2018-07-06T09:19:26.307Z,66.60
2018-07-06T09:21:28.054Z,66.40
2018-07-06T09:23:29.989Z,65.40
2018-07-06T09:25:32.021Z,65.90
2018-07-06T09:27:33.949Z,63.80
2018-07-06T09:29:35.926Z,60.30
2018-07-06T09:31:37.900Z,60.40
2018-07-06T09:33:39.883Z,60.00
2018-07-06T09:35:41.885Z,59.80
2018-07-06T09:37:43.853Z,59.90
2018-07-06T09:39:45.823Z,59.80
2018-07-06T09:41:47.804Z,59.50
2018-07-06T09:43:49.837Z,59.10
2018-07-06T09:47:54.068Z,58.70
2018-07-06T09:49:56.041Z,58.30
2018-07-06T09:51:58.093Z,58.00
2018-07-06T09:54:00.027Z,57.50
2018-07-06T09:56:02.020Z,57.20
2018-07-06T09:58:04.012Z,56.90
2018-07-06T10:00:05.955Z,56.30
2018-07-06T10:02:07.971Z,57.10
2018-07-06T10:04:09.908Z,56.50
2018-07-06T10:06:11.885Z,56.80
2018-07-06T10:08:13.865Z,55.90
2018-07-06T10:10:15.893Z,55.70
2018-07-06T10:12:17.826Z,55.30
2018-07-06T10:14:19.779Z,54.20
2018-07-06T10:16:21.781Z,54.90
2018-07-06T10:18:23.745Z,57.60
2018-07-06T10:20:25.721Z,57.40
2018-07-06T10:22:27.691Z,56.90
2018-07-06T10:24:29.646Z,57.00
2018-07-06T10:26:31.652Z,54.70
2018-07-06T10:28:33.636Z,54.20
2018-07-06T10:30:35.600Z,53.90
2018-07-06T10:32:37.577Z,53.70
2018-07-06T10:34:39.552Z,53.50
2018-07-06T10:36:41.520Z,53.90
2018-07-06T10:38:43.496Z,53.50
2018-07-06T10:40:45.466Z,52.80
2018-07-06T10:42:47.455Z,52.50
2018-07-06T10:44:49.404Z,52.30
2018-07-06T10:46:51.414Z,52.30
2018-07-06T10:48:53.388Z,52.40
2018-07-06T10:50:55.371Z,52.90
2018-07-06T10:52:57.348Z,52.00
2018-07-06T11:02:26.186Z,53.90
2018-07-06T11:04:28.156Z,54.50
2018-07-06T11:06:30.107Z,54.60
2018-07-06T11:08:32.114Z,55.40
2018-07-06T11:10:34.078Z,55.30
2018-07-06T11:12:36.034Z,55.70
2018-07-06T11:14:37.995Z,55.60
2018-07-06T11:16:39.952Z,55.30
2018-07-06T11:18:41.918Z,55.30
2018-07-06T11:22:46.110Z,55.40
2018-07-06T11:24:48.062Z,55.20
2018-07-06T11:26:50.020Z,55.40
2018-07-06T11:28:51.997Z,55.50
2018-07-06T11:30:53.978Z,56.30
2018-07-06T11:32:55.960Z,56.20
2018-07-06T11:34:57.935Z,55.40
2018-07-06T11:36:59.910Z,54.70
2018-07-06T11:39:01.883Z,55.70
2018-07-06T11:41:03.837Z,55.80
2018-07-06T11:43:05.813Z,55.90
2018-07-06T11:45:07.886Z,55.70
2018-07-06T11:47:09.761Z,55.00
2018-07-06T11:49:11.783Z,54.50
2018-07-06T11:51:13.782Z,54.10
2018-07-06T11:53:15.765Z,54.50
2018-07-06T11:55:17.735Z,53.90
2018-07-06T11:57:19.710Z,53.90
2018-07-06T11:59:21.681Z,53.90
2018-07-06T12:01:23.672Z,54.40
2018-07-06T12:03:25.639Z,53.90
2018-07-06T12:05:27.596Z,53.60
2018-07-06T12:07:29.551Z,52.50
2018-07-06T12:09:31.539Z,52.40
2018-07-06T12:11:33.506Z,53.00
2018-07-06T12:13:35.479Z,53.30
2018-07-06T12:15:37.541Z,52.60
2018-07-06T12:17:39.817Z,51.90
2018-07-06T12:19:41.773Z,52.20
2018-07-06T12:21:43.757Z,51.90
2018-07-06T12:23:45.733Z,51.80
2018-07-06T12:25:47.681Z,52.30
2018-07-06T12:27:49.717Z,51.60
2018-07-06T12:29:51.633Z,51.40
2018-07-06T12:31:53.593Z,51.00
2018-07-06T12:33:55.571Z,51.50
2018-07-06T12:35:57.527Z,50.60
2018-07-06T12:37:59.515Z,50.30
2018-07-06T12:40:01.496Z,51.00
2018-07-06T12:42:03.465Z,50.70
2018-07-06T12:44:05.433Z,50.00
2018-07-06T12:46:07.406Z,50.70
2018-07-06T12:48:09.390Z,50.30
2018-07-06T12:50:11.357Z,49.00
2018-07-06T12:52:13.365Z,48.90
2018-07-06T12:54:15.340Z,50.50
2018-07-06T12:56:17.287Z,50.30
2018-07-06T12:58:19.401Z,50.00
2018-07-06T13:00:21.603Z,49.40
2018-07-06T13:02:23.567Z,49.80
2018-07-06T13:06:27.837Z,48.00
2018-07-06T13:08:29.804Z,48.90
2018-07-06T13:10:31.855Z,48.30
2018-07-06T13:12:33.741Z,49.10
2018-07-06T13:14:35.718Z,49.50
2018-07-06T13:16:37.672Z,48.30
2018-07-06T13:18:39.643Z,48.80
2018-07-06T13:20:41.610Z,48.90
2018-07-06T13:22:43.573Z,49.30
2018-07-06T13:24:45.566Z,48.40
2018-07-06T13:28:49.785Z,49.00
2018-07-06T13:30:51.747Z,48.90
2018-07-06T13:32:53.742Z,49.10
2018-07-06T13:34:55.718Z,49.10
2018-07-06T13:36:57.691Z,48.70
2018-07-06T13:39:00.117Z,49.10
2018-07-06T13:41:02.048Z,49.40
2018-07-06T13:43:04.015Z,48.60
2018-07-06T13:45:05.990Z,47.90
2018-07-06T13:47:07.967Z,47.70
2018-07-06T13:49:09.949Z,48.00
2018-07-06T13:51:11.933Z,48.00
2018-07-06T13:53:13.895Z,47.50
2018-07-06T13:55:15.865Z,47.90
2018-07-06T13:57:17.844Z,46.90
2018-07-06T13:59:19.900Z,46.80
2018-07-06T14:01:21.775Z,46.40
2018-07-06T14:03:23.729Z,46.50
2018-07-06T14:05:25.742Z,46.80
2018-07-06T14:07:27.699Z,46.20
2018-07-06T14:09:29.667Z,45.80
2018-07-06T14:11:31.656Z,45.40
2018-07-06T14:13:33.642Z,44.40
2018-07-06T14:15:35.944Z,45.10
2018-07-06T14:17:37.922Z,44.40
2018-07-06T14:19:39.910Z,32.70
2018-07-06T14:21:41.851Z,45.60
2018-07-06T14:23:43.910Z,43.70
2018-07-06T14:25:45.801Z,45.10
2018-07-06T14:27:47.786Z,45.50
2018-07-06T14:29:49.755Z,44.90
2018-07-06T14:31:51.737Z,45.50
2018-07-06T14:33:53.696Z,45.30
2018-07-06T14:35:55.663Z,44.00
2018-07-06T14:37:57.644Z,43.90
2018-07-06T14:39:59.606Z,44.90
2018-07-06T14:42:01.576Z,43.40
2018-07-06T14:44:03.541Z,45.40
2018-07-06T14:46:05.524Z,46.50
2018-07-06T14:48:07.496Z,46.90
2018-07-06T14:50:09.480Z,47.80
2018-07-06T14:52:11.440Z,48.00
2018-07-06T14:54:13.409Z,48.00
2018-07-06T14:56:15.389Z,48.00
2018-07-06T14:58:17.352Z,48.40
2018-07-06T15:00:19.333Z,48.70
2018-07-06T15:02:21.309Z,48.70
2018-07-06T15:04:23.256Z,48.70
2018-07-06T15:06:25.236Z,48.70
2018-07-06T15:08:27.202Z,48.70
2018-07-06T15:12:31.516Z,49.00
2018-07-06T15:14:33.384Z,48.90
2018-07-06T15:16:35.352Z,48.80
2018-07-06T15:18:37.333Z,49.00
2018-07-06T15:20:39.302Z,48.80
2018-07-06T15:22:41.270Z,48.70
2018-07-06T15:24:43.273Z,49.30
2018-07-06T15:26:45.615Z,47.40
2018-07-06T15:28:47.597Z,48.30
2018-07-06T15:30:49.576Z,47.80
2018-07-06T15:32:51.544Z,46.90
2018-07-06T15:34:53.544Z,47.50
2018-07-06T15:36:55.506Z,46.60
2018-07-06T15:38:57.485Z,46.10
2018-07-06T15:40:59.464Z,46.20
2018-07-06T15:43:01.428Z,46.20
2018-07-06T15:45:03.389Z,46.30
2018-07-06T15:47:05.361Z,46.30
2018-07-06T15:49:07.336Z,46.50
2018-07-06T15:51:09.320Z,44.30
2018-07-06T15:53:11.290Z,43.60
2018-07-06T15:55:13.232Z,41.80
2018-07-06T15:57:15.213Z,42.40
2018-07-06T15:59:17.432Z,39.90
2018-07-06T16:01:19.405Z,40.40
2018-07-06T16:03:21.424Z,40.10
2018-07-06T16:05:23.350Z,42.90
2018-07-06T16:07:25.309Z,40.40
2018-07-06T16:09:27.403Z,39.80
2018-07-06T16:11:29.349Z,39.40
2018-07-06T16:13:31.308Z,41.20
2018-07-06T16:15:33.301Z,39.90
2018-07-06T16:17:35.252Z,41.50
2018-07-06T16:19:37.258Z,41.20
2018-07-06T16:21:39.214Z,41.80
2018-07-06T16:23:41.188Z,41.40
2018-07-06T16:25:43.173Z,41.80
2018-07-06T16:27:45.187Z,40.50
2018-07-06T16:29:47.133Z,39.30
2018-07-06T16:31:49.162Z,39.80
2018-07-06T16:33:51.105Z,39.50
2018-07-06T16:35:53.099Z,40.50
2018-07-06T16:37:55.050Z,39.90
2018-07-06T16:39:57.017Z,40.70
2018-07-06T16:41:58.994Z,39.20
2018-07-06T16:44:01.030Z,38.70
2018-07-06T16:46:02.957Z,39.30
2018-07-06T16:48:04.943Z,38.40
2018-07-06T16:50:06.922Z,39.00
2018-07-06T16:52:08.933Z,38.00
2018-07-06T16:56:13.106Z,38.50
2018-07-06T16:58:15.045Z,37.50
2018-07-06T17:00:17.018Z,36.70
2018-07-06T17:02:19.011Z,35.50
2018-07-06T17:04:20.973Z,38.40
2018-07-06T17:06:22.925Z,37.80
2018-07-06T17:08:24.900Z,38.10
2018-07-06T17:10:26.855Z,37.10
2018-07-06T17:12:28.841Z,36.80
2018-07-06T17:14:30.967Z,38.10
2018-07-06T17:16:32.892Z,38.50
2018-07-06T17:18:34.853Z,38.80
2018-07-06T17:20:36.820Z,37.60
2018-07-06T17:22:38.788Z,38.70
2018-07-06T17:24:40.767Z,38.10
2018-07-06T17:26:42.711Z,38.00
2018-07-06T17:28:44.706Z,35.20
2018-07-06T17:30:46.684Z,38.60
2018-07-06T17:32:48.645Z,38.10
2018-07-06T17:34:50.639Z,37.20
2018-07-06T17:36:52.607Z,37.60
2018-07-06T17:38:54.575Z,37.60
2018-07-06T17:40:56.530Z,36.70
2018-07-06T17:42:58.487Z,36.00
2018-07-06T17:45:00.475Z,37.40
2018-07-06T17:47:02.441Z,37.30
2018-07-06T17:49:04.411Z,37.50
2018-07-06T17:51:06.391Z,37.30
2018-07-06T17:53:08.349Z,37.80
2018-07-06T17:55:10.314Z,36.70
2018-07-06T17:57:12.287Z,37.10
2018-07-06T17:59:14.274Z,38.10
2018-07-06T18:01:16.245Z,36.40
2018-07-06T18:03:18.189Z,37.40
2018-07-06T18:05:20.172Z,37.10
2018-07-06T18:07:22.134Z,37.50
2018-07-06T18:09:24.081Z,36.70
2018-07-06T18:11:26.037Z,36.90
2018-07-06T18:13:27.992Z,37.50
2018-07-06T18:15:29.977Z,37.50
2018-07-06T18:17:31.939Z,38.10
2018-07-06T18:19:33.951Z,36.50
2018-07-06T18:21:35.924Z,37.80
2018-07-06T18:23:37.892Z,37.60
2018-07-06T18:25:39.872Z,38.40
2018-07-06T18:27:41.824Z,36.90
2018-07-06T18:29:43.807Z,37.40
2018-07-06T18:31:45.787Z,37.70
2018-07-06T18:33:47.786Z,37.30
2018-07-06T18:35:49.742Z,37.60
2018-07-06T18:37:51.720Z,37.50
2018-07-06T18:39:53.743Z,37.70
2018-07-06T18:41:55.714Z,37.90
2018-07-06T18:43:57.719Z,38.00
2018-07-06T18:45:59.690Z,38.20
2018-07-06T18:48:01.657Z,38.70
2018-07-06T18:50:03.633Z,38.80
2018-07-06T18:52:05.616Z,38.40
2018-07-06T18:54:07.593Z,38.60
2018-07-06T18:56:09.575Z,38.70
2018-07-06T18:58:11.556Z,38.60
2018-07-06T19:00:13.510Z,38.60
2018-07-06T19:02:15.473Z,39.50
2018-07-06T19:04:17.449Z,38.70
2018-07-06T19:06:19.414Z,39.40
2018-07-06T19:08:21.388Z,39.60
2018-07-06T19:10:23.358Z,39.60
2018-07-06T19:12:25.323Z,39.20
2018-07-06T19:14:27.344Z,39.30
2018-07-06T19:16:29.292Z,39.60
2018-07-06T19:18:31.285Z,39.70
2018-07-06T19:20:33.275Z,39.50
2018-07-06T19:22:35.245Z,39.50
2018-07-06T19:24:37.225Z,39.80
2018-07-06T19:26:39.198Z,40.00
2018-07-06T19:28:41.176Z,40.50
2018-07-06T19:30:43.154Z,40.00
2018-07-06T19:32:45.105Z,40.00
2018-07-06T19:34:47.101Z,40.30
2018-07-06T19:36:49.094Z,40.00
2018-07-06T19:38:51.041Z,40.40
2018-07-06T19:40:53.022Z,41.10
2018-07-06T19:42:54.989Z,40.60
2018-07-06T19:44:56.955Z,40.00
2018-07-06T19:46:58.935Z,40.00
2018-07-06T19:49:00.916Z,39.90
2018-07-06T19:51:02.881Z,40.30
2018-07-06T19:53:04.860Z,40.20
2018-07-06T19:55:06.840Z,40.50
2018-07-06T19:57:08.814Z,41.20
2018-07-06T19:59:10.791Z,41.10
2018-07-06T20:01:12.768Z,41.20
2018-07-06T20:03:14.725Z,40.80
2018-07-06T20:05:16.729Z,41.20
2018-07-06T20:07:18.695Z,41.30
2018-07-06T20:09:20.635Z,41.50
2018-07-06T20:11:22.674Z,41.40
2018-07-06T20:13:24.709Z,41.10
2018-07-06T20:15:26.637Z,41.50
2018-07-06T20:17:28.598Z,41.40
2018-07-06T20:19:30.568Z,41.10
2018-07-06T20:21:32.552Z,41.00
2018-07-06T20:23:34.521Z,41.20
2018-07-06T20:25:36.458Z,41.20
2018-07-06T20:27:38.440Z,41.00
2018-07-06T20:29:40.396Z,41.20
2018-07-06T20:31:42.382Z,41.60
2018-07-06T20:33:44.332Z,41.80
2018-07-06T20:35:46.303Z,41.80
2018-07-06T20:37:48.280Z,42.20
2018-07-06T20:39:50.224Z,41.70
2018-07-06T20:41:52.222Z,41.70
2018-07-06T20:43:54.176Z,42.40
2018-07-06T20:45:56.138Z,42.40
2018-07-06T20:47:58.112Z,42.40
2018-07-06T20:50:00.091Z,42.80
2018-07-06T20:52:02.056Z,43.40
2018-07-06T20:54:04.016Z,43.80
2018-07-06T20:56:05.972Z,44.10
2018-07-06T20:58:07.973Z,44.70
2018-07-06T21:00:09.944Z,45.20
2018-07-06T21:02:11.921Z,45.70
2018-07-06T21:04:13.916Z,45.90
2018-07-06T21:06:15.886Z,47.00
2018-07-06T21:08:17.879Z,46.50
2018-07-06T21:10:19.846Z,46.70
2018-07-06T21:12:21.832Z,46.50
2018-07-06T21:14:23.778Z,47.00
2018-07-06T21:16:25.728Z,47.70
2018-07-06T21:18:27.703Z,48.00
2018-07-06T21:20:29.685Z,48.40
2018-07-06T21:22:31.644Z,48.70
2018-07-06T21:24:33.615Z,49.40
2018-07-06T21:26:35.580Z,49.80
2018-07-06T21:28:37.543Z,49.70
2018-07-06T21:30:39.534Z,50.10
2018-07-06T21:32:41.510Z,50.20
2018-07-06T21:34:43.472Z,48.70
2018-07-06T21:36:45.459Z,47.60
2018-07-06T21:38:47.440Z,46.80
2018-07-06T21:40:49.422Z,46.20
2018-07-06T21:42:51.403Z,46.20
2018-07-06T21:44:53.390Z,46.00
2018-07-06T21:46:55.359Z,45.80
2018-07-06T21:48:57.319Z,45.80
2018-07-06T21:50:59.307Z,45.80
2018-07-06T21:55:03.507Z,45.80
2018-07-06T21:57:05.462Z,45.70
2018-07-06T21:59:07.461Z,45.80
2018-07-06T22:01:09.424Z,45.80
2018-07-06T22:03:11.425Z,45.80
2018-07-06T22:05:13.419Z,45.80
2018-07-06T22:07:15.381Z,45.90
2018-07-06T22:09:17.364Z,45.80
2018-07-06T22:11:19.422Z,45.90
2018-07-06T22:13:21.362Z,46.00
2018-07-06T22:15:23.346Z,45.90
2018-07-06T22:17:25.322Z,46.00
2018-07-06T22:19:27.281Z,45.90
2018-07-06T22:21:29.293Z,46.00
2018-07-06T22:23:31.257Z,46.00
2018-07-06T22:25:33.225Z,46.00
2018-07-06T22:27:35.204Z,46.00
2018-07-06T22:29:37.168Z,46.00
2018-07-06T22:31:39.140Z,46.00
2018-07-06T22:33:41.139Z,46.00
2018-07-06T22:35:43.096Z,45.80
2018-07-06T22:37:45.073Z,45.80
2018-07-06T22:39:47.043Z,45.90
2018-07-06T22:43:57.259Z,46.00
2018-07-06T22:45:59.236Z,45.90
2018-07-06T22:48:01.209Z,46.00
2018-07-06T22:50:03.186Z,46.80
2018-07-06T22:52:05.162Z,46.20
2018-07-06T22:54:07.108Z,46.20
2018-07-06T22:56:09.097Z,46.30
2018-07-06T22:58:11.070Z,46.30
2018-07-06T23:00:13.062Z,46.40
2018-07-06T23:02:15.039Z,46.50
2018-07-06T23:04:17.058Z,46.50
2018-07-06T23:06:19.060Z,47.20
2018-07-06T23:08:21.001Z,46.50
2018-07-06T23:10:22.960Z,46.60
2018-07-06T23:12:24.928Z,46.70
2018-07-06T23:14:26.904Z,46.70
2018-07-06T23:16:28.886Z,46.80
2018-07-06T23:18:30.864Z,46.80
2018-07-06T23:20:32.843Z,46.70
2018-07-06T23:22:34.820Z,46.80
2018-07-06T23:24:36.794Z,46.90
2018-07-06T23:28:41.012Z,46.90
2018-07-06T23:30:42.972Z,46.90
2018-07-06T23:32:44.938Z,46.90
2018-07-06T23:34:46.908Z,46.90
2018-07-06T23:36:48.900Z,46.90
2018-07-06T23:40:53.104Z,47.00
2018-07-06T23:42:55.070Z,47.00
2018-07-06T23:44:57.043Z,47.00
2018-07-06T23:46:59.004Z,47.10
2018-07-06T23:49:00.977Z,47.10
2018-07-06T23:51:02.932Z,47.30
2018-07-06T23:53:04.891Z,47.50
2018-07-06T23:55:06.858Z,47.50
2018-07-06T23:57:08.842Z,47.60
2018-07-06T23:59:10.813Z,47.60
